Startpagina
METAR-TAF:

METAR-TAF

Vliegvelden :

Bozeman, Montana, Verenigde Staten

breedte: 45-47-17N, lengte: 111-09-39W, hoogte: 1364 m

Actueel weer

Dit bericht is 45 minuten geleden gemaakt, om 03:56 UTC
Wind 6 kt uit het oostzuidoosten
Temperatuur 3°C
Vochtigheid 70%
Druk 1028 hPa
Zicht: 16.1 km
Onbewolkt

METAR: KBZN 200356Z 12006KT 10SM CLR 03/M02 A3035 RMK AO2 SLP293 T00281017

Tijdstip: 22:41 (04:41 UTC)

Verwachting

Dit bericht is 5 uur en het 21 minuten geleden gemaakt, om 23:20 UTC
Verwachting geldig van 20 om 00 UTC tot 21 om 06 UTC
Wind 5 kt uit variabele richting
Zicht: 10 km
Onbewolkt

TAF: KBZN 192320Z 2000/2106 VRB05KT P6SM SKC

Waarnemingen en weersverwachtingen van meer dan 4000 vliegvelden (METAR en TAF).

De beschikbare stations zijn de gele en rode punten op de kaart.

Ga met uw muis naar het station om de naam te zien.

Klik dan om waarnemingen en weersverwachtingen te zien.

kaart wijzigen: klik op de groene knoppen met een zwart kruis om in te zoomen, op de groene knop met een streepje om uit te zoomen of op de groene pijlen voor aangrenzende kaarten.


METAR-TAF: